METAR Torp

ENTO 250550Z 04007KT CAVOK 12/03 Q1013

METAR Gardermoen

ENGM 250550Z 03006KT CAVOK 11/M00 Q1015 NOSIG

Webcam Kjeller